createdAt,value
2023-02-24T00:03:11.272Z,7.40
2023-02-24T00:07:30.074Z,7.40
2023-02-24T00:12:06.148Z,7.40
2023-02-24T00:16:25.402Z,7.50
2023-02-24T00:20:42.574Z,7.40
2023-02-24T00:25:02.488Z,7.40
2023-02-24T00:29:20.112Z,7.40
2023-02-24T00:33:39.326Z,7.40
2023-02-24T00:37:56.548Z,7.30
2023-02-24T00:42:14.855Z,7.30
2023-02-24T00:46:35.767Z,7.20
2023-02-24T00:50:52.915Z,7.20
2023-02-24T00:55:14.516Z,7.20
2023-02-24T00:59:31.820Z,7.20
2023-02-24T01:03:50.422Z,7.20
2023-02-24T01:08:07.993Z,7.10
2023-02-24T01:12:49.374Z,7.00
2023-02-24T01:17:08.497Z,7.10
2023-02-24T01:21:25.813Z,7.10
2023-02-24T01:25:47.747Z,7.20
2023-02-24T01:30:05.281Z,7.10
2023-02-24T01:34:22.352Z,7.10
2023-02-24T01:38:42.092Z,7.20
2023-02-24T01:42:59.233Z,7.20
2023-02-24T01:47:20.689Z,7.10
2023-02-24T01:51:43.395Z,7.20
2023-02-24T01:56:00.515Z,7.10
2023-02-24T02:00:39.410Z,7.10
2023-02-24T02:05:05.566Z,7.10
2023-02-24T02:09:22.804Z,7.10
2023-02-24T02:13:44.378Z,6.90
2023-02-24T02:18:15.187Z,6.70
2023-02-24T02:23:12.952Z,6.80
2023-02-24T02:27:52.198Z,6.80
2023-02-24T02:32:52.235Z,6.70
2023-02-24T02:37:20.023Z,6.70
2023-02-24T02:42:02.194Z,6.60
2023-02-24T02:46:34.819Z,6.60
2023-02-24T02:51:11.270Z,6.40
2023-02-24T02:55:38.564Z,6.30
2023-02-24T03:00:01.620Z,6.30
2023-02-24T03:04:22.857Z,6.30
2023-02-24T03:08:44.199Z,6.20
2023-02-24T03:13:05.460Z,6.10
2023-02-24T03:17:26.056Z,6.10
2023-02-24T03:21:45.362Z,6.10
2023-02-24T03:26:21.964Z,6.10
2023-02-24T03:30:50.399Z,6.10
2023-02-24T03:35:15.141Z,6.00
2023-02-24T03:39:32.718Z,6.00
2023-02-24T03:43:51.395Z,6.00
2023-02-24T03:48:10.147Z,6.10
2023-02-24T03:52:40.459Z,6.00
2023-02-24T03:57:29.844Z,5.90
2023-02-24T04:01:55.774Z,5.90
2023-02-24T04:06:23.435Z,5.90
2023-02-24T04:10:59.121Z,5.90
2023-02-24T04:15:20.649Z,5.90
2023-02-24T04:19:41.604Z,6.00
2023-02-24T04:24:06.166Z,6.00
2023-02-24T04:28:25.251Z,5.90
2023-02-24T04:32:45.336Z,5.90
2023-02-24T04:37:02.520Z,5.90
2023-02-24T04:41:23.104Z,5.90
2023-02-24T04:45:40.647Z,5.90
2023-02-24T04:49:57.724Z,5.90
2023-02-24T04:54:17.607Z,5.90
2023-02-24T04:58:37.118Z,5.90
2023-02-24T05:02:56.561Z,5.80
2023-02-24T05:07:15.890Z,5.90
2023-02-24T05:11:34.832Z,5.90
2023-02-24T05:15:51.951Z,5.70
2023-02-24T05:20:28.677Z,5.50
2023-02-24T05:24:47.911Z,5.20
2023-02-24T05:29:06.763Z,5.30
2023-02-24T05:33:23.880Z,5.30
2023-02-24T05:37:44.895Z,5.30
2023-02-24T05:42:06.611Z,5.20
2023-02-24T05:46:32.479Z,5.20
2023-02-24T05:50:54.920Z,5.20
2023-02-24T05:55:13.987Z,5.00
2023-02-24T05:59:32.779Z,5.10
2023-02-24T06:03:50.079Z,5.00
2023-02-24T06:08:11.671Z,5.00
2023-02-24T06:12:31.778Z,4.90
2023-02-24T06:16:48.901Z,5.00
2023-02-24T06:21:07.312Z,5.00
2023-02-24T06:25:26.446Z,5.00
2023-02-24T06:29:45.101Z,4.90
2023-02-24T06:34:02.179Z,4.90
2023-02-24T06:38:19.366Z,4.80
2023-02-24T06:42:36.456Z,4.70
2023-02-24T06:46:53.550Z,4.90
2023-02-24T06:51:15.541Z,4.80
2023-02-24T06:55:35.594Z,4.70
2023-02-24T06:59:52.697Z,4.60
2023-02-24T07:04:12.775Z,4.80
2023-02-24T07:08:30.063Z,4.90
2023-02-24T07:12:47.171Z,4.90
2023-02-24T07:17:05.732Z,4.90
2023-02-24T07:21:24.773Z,4.90
2023-02-24T07:25:43.381Z,5.10
2023-02-24T07:30:06.022Z,5.10
2023-02-24T07:34:24.950Z,5.00
2023-02-24T07:38:42.781Z,4.90
2023-02-24T07:43:01.568Z,4.70
2023-02-24T07:47:18.682Z,4.70
2023-02-24T07:51:36.313Z,4.60
2023-02-24T07:55:54.280Z,4.40
2023-02-24T08:00:28.029Z,4.30
2023-02-24T08:04:50.102Z,4.30
2023-02-24T08:09:20.508Z,4.30
2023-02-24T08:13:37.673Z,4.30
2023-02-24T08:18:00.994Z,4.50
2023-02-24T08:22:24.014Z,4.20
2023-02-24T08:26:44.690Z,4.20
2023-02-24T08:31:04.460Z,4.20
2023-02-24T08:35:23.151Z,4.30
2023-02-24T08:39:40.350Z,4.20
2023-02-24T08:43:57.469Z,4.20
2023-02-24T08:48:26.158Z,4.30
2023-02-24T08:52:44.691Z,4.20
2023-02-24T08:57:08.256Z,4.50
2023-02-24T09:01:34.335Z,4.60
2023-02-24T09:05:54.670Z,4.70
2023-02-24T09:10:17.826Z,4.50
2023-02-24T09:14:38.188Z,4.40
2023-02-24T09:19:30.921Z,4.60
2023-02-24T09:23:48.213Z,4.60
2023-02-24T09:28:16.963Z,4.90
2023-02-24T09:32:34.752Z,5.00
2023-02-24T09:37:02.918Z,4.90
2023-02-24T09:41:32.564Z,4.90
2023-02-24T09:45:58.309Z,5.10
2023-02-24T09:50:46.904Z,4.80
2023-02-24T09:55:19.002Z,4.70
2023-02-24T10:00:22.968Z,4.70
2023-02-24T10:05:08.931Z,4.70
2023-02-24T10:09:43.694Z,4.80
2023-02-24T10:14:09.388Z,4.80
2023-02-24T10:18:45.053Z,4.80
2023-02-24T10:23:34.352Z,4.80
2023-02-24T10:28:11.510Z,4.80
2023-02-24T10:32:50.002Z,5.10
2023-02-24T10:37:27.731Z,5.20
2023-02-24T10:42:16.441Z,5.40
2023-02-24T10:46:41.062Z,5.80
2023-02-24T10:51:08.414Z,6.00
2023-02-24T10:55:43.290Z,6.30
2023-02-24T11:00:18.706Z,6.60
2023-02-24T11:04:58.443Z,6.20
2023-02-24T11:09:29.780Z,6.30
2023-02-24T11:14:12.419Z,6.40
2023-02-24T11:18:31.270Z,6.30
2023-02-24T11:22:52.449Z,6.60
2023-02-24T11:27:10.891Z,7.50
2023-02-24T11:31:54.391Z,7.30
2023-02-24T11:36:34.516Z,6.90
2023-02-24T11:41:05.227Z,7.00
2023-02-24T11:45:43.373Z,7.20
2023-02-24T11:50:19.740Z,7.30
2023-02-24T11:54:47.609Z,7.70
2023-02-24T11:59:15.967Z,7.40
2023-02-24T12:03:43.639Z,7.10
2023-02-24T12:08:09.624Z,7.10
2023-02-24T12:12:30.764Z,7.20
2023-02-24T12:16:56.626Z,7.40
2023-02-24T12:21:35.656Z,7.80
2023-02-24T12:26:20.638Z,7.90
2023-02-24T12:31:01.034Z,7.40
2023-02-24T12:35:47.408Z,7.50
2023-02-24T12:40:31.041Z,7.30
2023-02-24T12:45:01.782Z,7.40
2023-02-24T12:49:50.717Z,7.20
2023-02-24T12:54:22.781Z,7.20
2023-02-24T12:58:44.973Z,7.20
2023-02-24T13:03:32.214Z,7.20
2023-02-24T13:08:12.786Z,7.40
2023-02-24T13:13:03.478Z,7.60
2023-02-24T13:17:24.310Z,7.50
2023-02-24T13:21:41.520Z,7.60
2023-02-24T13:25:59.266Z,7.70
2023-02-24T13:30:18.259Z,7.80
2023-02-24T13:34:45.206Z,7.70
2023-02-24T13:39:08.151Z,7.50
2023-02-24T13:43:28.123Z,7.30
2023-02-24T13:48:01.621Z,7.20
2023-02-24T13:52:43.873Z,7.20
2023-02-24T13:57:19.540Z,7.00
2023-02-24T14:02:00.145Z,7.10
2023-02-24T14:06:23.453Z,7.20
2023-02-24T14:10:45.845Z,7.30
2023-02-24T14:15:04.447Z,7.30
2023-02-24T14:19:24.040Z,7.20
2023-02-24T14:23:40.987Z,7.30
2023-02-24T14:27:58.247Z,7.50
2023-02-24T14:32:25.062Z,7.30
2023-02-24T14:36:44.998Z,7.20
2023-02-24T14:41:05.257Z,7.20
2023-02-24T14:45:26.222Z,7.10
2023-02-24T14:49:59.830Z,7.20
2023-02-24T14:54:28.533Z,7.10
2023-02-24T14:58:51.210Z,7.00
2023-02-24T15:03:14.802Z,7.00
2023-02-24T15:07:34.787Z,7.10
2023-02-24T15:11:55.538Z,6.90
2023-02-24T15:16:36.591Z,6.90
2023-02-24T15:21:03.184Z,6.90
2023-02-24T15:25:37.121Z,6.80
2023-02-24T15:30:02.054Z,6.80
2023-02-24T15:34:31.780Z,6.70
2023-02-24T15:38:52.597Z,6.50
2023-02-24T15:43:11.812Z,6.10
2023-02-24T15:47:43.960Z,5.90
2023-02-24T15:52:03.935Z,5.60
2023-02-24T15:56:21.464Z,5.40
2023-02-24T16:00:38.858Z,5.20
2023-02-24T16:04:55.961Z,5.00
2023-02-24T16:09:15.999Z,4.90
2023-02-24T16:13:33.152Z,4.80
2023-02-24T16:17:51.422Z,4.70
2023-02-24T16:22:10.441Z,4.70
2023-02-24T16:26:27.656Z,4.60
2023-02-24T16:30:45.833Z,4.50
2023-02-24T16:35:03.060Z,4.50
2023-02-24T16:39:20.358Z,4.40
2023-02-24T16:43:37.660Z,4.30
2023-02-24T16:47:56.999Z,4.20
2023-02-24T16:52:17.171Z,4.10
2023-02-24T16:56:34.311Z,4.10
2023-02-24T17:00:54.415Z,3.90
2023-02-24T17:05:20.141Z,3.80
2023-02-24T17:09:37.249Z,3.90
2023-02-24T17:13:54.431Z,3.90
2023-02-24T17:18:11.733Z,3.80
2023-02-24T17:22:28.909Z,3.80
2023-02-24T17:26:46.343Z,3.70
2023-02-24T17:31:03.643Z,3.60
2023-02-24T17:35:21.438Z,3.60
2023-02-24T17:39:38.543Z,3.80
2023-02-24T17:43:55.728Z,3.70
2023-02-24T17:48:14.878Z,3.70
2023-02-24T17:52:32.309Z,3.60
2023-02-24T17:56:49.523Z,3.50
2023-02-24T18:01:06.996Z,3.50
2023-02-24T18:05:24.150Z,3.50
2023-02-24T18:09:41.320Z,3.50
2023-02-24T18:14:00.758Z,3.40
2023-02-24T18:18:17.916Z,3.50
2023-02-24T18:22:35.747Z,3.50
2023-02-24T18:26:52.926Z,3.40
2023-02-24T18:31:18.092Z,3.30
2023-02-24T18:35:37.136Z,3.30
2023-02-24T18:39:55.775Z,3.20
2023-02-24T18:44:13.012Z,3.20
2023-02-24T18:48:31.784Z,3.20
2023-02-24T18:52:49.185Z,3.20
2023-02-24T18:57:06.411Z,3.20
2023-02-24T19:01:27.319Z,3.20
2023-02-24T19:05:44.750Z,3.20
2023-02-24T19:10:03.472Z,3.20
2023-02-24T19:14:20.795Z,3.20
2023-02-24T19:18:38.074Z,3.20
2023-02-24T19:22:55.362Z,3.30
2023-02-24T19:27:12.595Z,3.20
2023-02-24T19:31:32.923Z,3.30
2023-02-24T19:35:52.271Z,3.30
2023-02-24T19:40:11.187Z,3.30
2023-02-24T19:44:28.367Z,3.30
2023-02-24T19:48:46.045Z,3.30
2023-02-24T19:53:03.245Z,3.30
2023-02-24T19:57:20.391Z,3.30
2023-02-24T20:01:37.685Z,3.30
2023-02-24T20:05:55.091Z,3.40
2023-02-24T20:10:12.473Z,3.40
2023-02-24T20:14:30.057Z,3.40
2023-02-24T20:18:47.326Z,3.40
2023-02-24T20:23:05.475Z,3.40
2023-02-24T20:27:22.880Z,3.40
2023-02-24T20:31:40.764Z,3.40
2023-02-24T20:35:58.152Z,3.50
2023-02-24T20:40:15.495Z,3.50
2023-02-24T20:44:32.733Z,3.50
2023-02-24T20:48:51.746Z,3.50
2023-02-24T20:53:09.012Z,3.50
2023-02-24T20:57:26.569Z,3.50
2023-02-24T21:01:47.135Z,3.50
2023-02-24T21:06:10.280Z,3.50
2023-02-24T21:10:27.780Z,3.50
2023-02-24T21:14:45.071Z,3.50
2023-02-24T21:19:02.265Z,3.60
2023-02-24T21:23:19.821Z,3.60
2023-02-24T21:27:38.001Z,3.50
2023-02-24T21:31:56.006Z,3.60
2023-02-24T21:36:14.738Z,3.60
2023-02-24T21:40:32.715Z,3.60
2023-02-24T21:44:51.001Z,3.70
2023-02-24T21:49:14.205Z,3.60
2023-02-24T21:53:35.216Z,3.60
2023-02-24T21:57:52.296Z,3.60
2023-02-24T22:02:15.556Z,3.60
2023-02-24T22:06:34.836Z,3.70
2023-02-24T22:10:59.627Z,3.60
2023-02-24T22:15:17.322Z,3.60
2023-02-24T22:19:34.405Z,3.60
2023-02-24T22:23:55.844Z,3.60
2023-02-24T22:28:12.930Z,3.50
2023-02-24T22:32:30.272Z,3.60
2023-02-24T22:36:47.477Z,3.60
2023-02-24T22:41:16.471Z,3.60
2023-02-24T22:45:34.083Z,3.60
2023-02-24T22:49:51.216Z,3.50
2023-02-24T22:54:08.438Z,3.40
2023-02-24T22:58:26.511Z,3.30
2023-02-24T23:02:43.609Z,3.30
2023-02-24T23:07:01.094Z,3.30
2023-02-24T23:11:21.574Z,3.20
2023-02-24T23:15:41.900Z,3.20
2023-02-24T23:19:59.000Z,3.20
2023-02-24T23:24:17.431Z,3.10
2023-02-24T23:28:35.106Z,3.10
2023-02-24T23:32:52.292Z,3.10
2023-02-24T23:37:11.982Z,3.10
2023-02-24T23:41:29.347Z,3.10
2023-02-24T23:45:46.517Z,3.20
2023-02-24T23:50:04.264Z,3.20
2023-02-24T23:54:21.386Z,3.20
2023-02-24T23:58:38.468Z,3.20
